createdAt,value
2023-05-04T00:01:02.389Z,65.38
2023-05-04T00:03:28.965Z,65.61
2023-05-04T00:05:55.614Z,65.90
2023-05-04T00:08:22.085Z,65.85
2023-05-04T00:10:48.612Z,65.87
2023-05-04T00:13:15.197Z,66.10
2023-05-04T00:15:41.946Z,66.58
2023-05-04T00:18:08.664Z,67.06
2023-05-04T00:20:35.147Z,66.41
2023-05-04T00:23:01.636Z,65.74
2023-05-04T00:25:28.128Z,65.88
2023-05-04T00:27:54.616Z,65.34
2023-05-04T00:30:21.158Z,65.92
2023-05-04T00:32:47.689Z,66.30
2023-05-04T00:35:14.227Z,65.52
2023-05-04T00:37:40.927Z,65.62
2023-05-04T00:40:08.960Z,65.69
2023-05-04T00:42:35.467Z,66.52
2023-05-04T00:45:01.966Z,66.44
2023-05-04T00:47:29.945Z,66.06
2023-05-04T00:49:56.577Z,66.14
2023-05-04T00:52:24.266Z,67.01
2023-05-04T00:54:52.044Z,66.75
2023-05-04T00:57:18.519Z,65.87
2023-05-04T00:59:45.018Z,66.18
2023-05-04T01:02:11.678Z,66.64
2023-05-04T01:04:38.297Z,67.27
2023-05-04T01:07:25.025Z,66.40
2023-05-04T01:10:02.104Z,66.67
2023-05-04T01:12:41.569Z,66.23
2023-05-04T01:15:09.827Z,65.78
2023-05-04T01:17:36.563Z,66.06
2023-05-04T01:20:04.161Z,66.26
2023-05-04T01:22:30.902Z,66.63
2023-05-04T01:24:57.376Z,67.21
2023-05-04T01:27:23.824Z,67.48
2023-05-04T01:29:53.233Z,66.79
2023-05-04T01:32:21.076Z,66.30
2023-05-04T01:34:48.004Z,66.73
2023-05-04T01:37:14.795Z,66.21
2023-05-04T01:39:41.274Z,67.16
2023-05-04T01:42:07.773Z,67.50
2023-05-04T01:44:34.379Z,66.41
2023-05-04T01:47:00.925Z,66.52
2023-05-04T01:49:27.373Z,66.61
2023-05-04T01:51:53.820Z,66.59
2023-05-04T01:54:20.267Z,68.29
2023-05-04T01:56:46.789Z,67.71
2023-05-04T01:59:13.273Z,67.46
2023-05-04T02:01:39.804Z,67.26
2023-05-04T02:04:06.338Z,67.95
2023-05-04T02:06:33.014Z,68.84
2023-05-04T02:08:59.630Z,68.13
2023-05-04T02:11:26.256Z,67.56
2023-05-04T02:13:53.834Z,66.85
2023-05-04T02:16:20.394Z,66.58
2023-05-04T02:18:46.953Z,67.28
2023-05-04T02:21:13.757Z,67.14
2023-05-04T02:23:40.206Z,68.42
2023-05-04T02:26:06.730Z,67.39
2023-05-04T02:28:33.194Z,67.37
2023-05-04T02:30:59.704Z,66.87
2023-05-04T02:33:26.208Z,68.09
2023-05-04T02:35:52.647Z,67.54
2023-05-04T02:38:19.148Z,67.03
2023-05-04T02:40:45.582Z,66.81
2023-05-04T02:43:12.100Z,67.13
2023-05-04T02:45:38.653Z,67.00
2023-05-04T02:48:05.492Z,67.13
2023-05-04T02:50:32.015Z,68.39
2023-05-04T02:52:58.562Z,67.95
2023-05-04T02:55:25.031Z,67.51
2023-05-04T02:57:51.483Z,67.02
2023-05-04T03:00:18.194Z,67.72
2023-05-04T03:02:44.676Z,67.08
2023-05-04T03:05:11.356Z,68.47
2023-05-04T03:07:37.826Z,67.86
2023-05-04T03:10:04.805Z,67.75
2023-05-04T03:12:31.608Z,68.26
2023-05-04T03:14:58.112Z,67.53
2023-05-04T03:17:24.584Z,67.43
2023-05-04T03:19:51.048Z,68.42
2023-05-04T03:22:17.560Z,70.16
2023-05-04T03:24:44.119Z,69.68
2023-05-04T03:27:10.657Z,70.21
2023-05-04T03:29:37.105Z,71.58
2023-05-04T03:32:03.721Z,69.42
2023-05-04T03:34:30.236Z,68.60
2023-05-04T03:36:58.243Z,68.40
2023-05-04T03:39:24.727Z,68.89
2023-05-04T03:41:52.601Z,69.05
2023-05-04T03:44:19.145Z,69.38
2023-05-04T03:46:45.585Z,69.03
2023-05-04T03:49:12.070Z,68.48
2023-05-04T03:51:38.503Z,68.83
2023-05-04T03:54:05.061Z,68.46
2023-05-04T03:56:31.545Z,68.09
2023-05-04T03:58:58.015Z,67.86
2023-05-04T04:01:25.322Z,68.23
2023-05-04T04:03:51.886Z,68.54
2023-05-04T04:06:18.405Z,70.36
2023-05-04T04:08:44.865Z,70.83
2023-05-04T04:11:11.315Z,69.92
2023-05-04T04:13:37.775Z,69.55
2023-05-04T04:16:04.716Z,70.25
2023-05-04T04:18:31.494Z,70.00
2023-05-04T04:20:58.018Z,71.15
2023-05-04T04:23:25.401Z,71.72
2023-05-04T04:25:53.795Z,69.88
2023-05-04T04:28:20.308Z,70.18
2023-05-04T04:30:46.765Z,69.11
2023-05-04T04:33:13.237Z,69.55
2023-05-04T04:35:39.843Z,69.03
2023-05-04T04:38:07.019Z,68.59
2023-05-04T04:40:33.452Z,69.64
2023-05-04T04:42:59.985Z,70.61
2023-05-04T04:45:26.441Z,70.06
2023-05-04T04:47:53.036Z,70.16
2023-05-04T04:50:19.524Z,70.51
2023-05-04T04:52:46.389Z,69.80
2023-05-04T04:55:13.375Z,69.66
2023-05-04T04:57:39.866Z,70.07
2023-05-04T05:00:10.216Z,69.86
2023-05-04T05:02:37.033Z,69.49
2023-05-04T05:05:03.969Z,70.64
2023-05-04T05:07:30.714Z,69.43
2023-05-04T05:09:57.227Z,70.08
2023-05-04T05:12:23.729Z,70.84
2023-05-04T05:14:50.908Z,70.18
2023-05-04T05:17:18.103Z,71.24
2023-05-04T05:19:44.641Z,71.14
2023-05-04T05:22:11.088Z,71.23
2023-05-04T05:24:37.578Z,71.63
2023-05-04T05:27:04.038Z,70.83
2023-05-04T05:29:30.976Z,70.75
2023-05-04T05:31:57.414Z,69.59
2023-05-04T05:34:23.879Z,69.78
2023-05-04T05:36:50.338Z,69.56
2023-05-04T05:39:16.912Z,69.40
2023-05-04T05:41:43.383Z,70.27
2023-05-04T05:44:11.720Z,70.56
2023-05-04T05:46:39.564Z,71.22
2023-05-04T05:49:07.416Z,70.65
2023-05-04T05:51:34.028Z,72.79
2023-05-04T05:54:00.782Z,71.79
2023-05-04T05:56:27.228Z,71.30
2023-05-04T05:58:53.773Z,71.14
2023-05-04T06:01:20.245Z,70.42
2023-05-04T06:03:47.022Z,72.10
2023-05-04T06:06:13.807Z,72.00
2023-05-04T06:08:41.532Z,71.30
2023-05-04T06:11:07.962Z,69.91
2023-05-04T06:13:34.476Z,70.92
2023-05-04T06:16:01.033Z,70.74
2023-05-04T06:18:27.551Z,69.75
2023-05-04T06:21:00.959Z,69.40
2023-05-04T06:23:28.800Z,68.50
2023-05-04T06:25:55.312Z,68.35
2023-05-04T06:28:21.902Z,66.84
2023-05-04T06:30:48.635Z,68.55
2023-05-04T06:33:15.279Z,67.31
2023-05-04T06:35:42.108Z,65.17
2023-05-04T06:38:08.604Z,65.91
2023-05-04T06:40:35.376Z,64.48
2023-05-04T06:43:02.061Z,64.16
2023-05-04T06:45:28.759Z,63.46
2023-05-04T06:47:55.243Z,62.47
2023-05-04T06:50:24.008Z,61.86
2023-05-04T06:52:50.793Z,61.53
2023-05-04T06:55:17.389Z,60.77
2023-05-04T06:57:43.855Z,59.66
2023-05-04T07:00:10.820Z,58.36
2023-05-04T07:02:37.251Z,57.91
2023-05-04T07:05:03.978Z,56.95
2023-05-04T07:07:30.450Z,56.43
2023-05-04T07:09:56.922Z,55.91
2023-05-04T07:12:23.377Z,55.47
2023-05-04T07:14:50.060Z,55.86
2023-05-04T07:17:16.604Z,56.69
2023-05-04T07:19:43.078Z,55.61
2023-05-04T07:22:09.771Z,57.34
2023-05-04T07:24:36.231Z,56.07
2023-05-04T07:27:03.212Z,56.02
2023-05-04T07:29:29.824Z,56.03
2023-05-04T07:31:56.274Z,54.63
2023-05-04T07:34:27.644Z,52.92
2023-05-04T07:37:00.722Z,53.04
2023-05-04T07:39:27.178Z,51.69
2023-05-04T07:41:54.411Z,52.29
2023-05-04T07:44:20.960Z,52.29
2023-05-04T07:46:47.415Z,52.71
2023-05-04T07:49:13.949Z,51.13
2023-05-04T07:51:40.420Z,51.08
2023-05-04T07:54:06.986Z,50.08
2023-05-04T07:56:33.470Z,48.92
2023-05-04T07:58:59.972Z,48.68
2023-05-04T08:01:26.435Z,48.37
2023-05-04T08:03:52.907Z,50.73
2023-05-04T08:06:19.333Z,48.08
2023-05-04T08:08:46.592Z,47.98
2023-05-04T08:11:20.673Z,47.54
2023-05-04T08:13:50.719Z,48.65
2023-05-04T08:16:17.589Z,48.56
2023-05-04T08:18:44.493Z,48.58
2023-05-04T08:21:10.955Z,48.11
2023-05-04T08:23:37.520Z,49.16
2023-05-04T08:26:04.813Z,48.17
2023-05-04T08:28:35.306Z,47.78
2023-05-04T08:31:03.272Z,47.27
2023-05-04T08:33:30.492Z,45.93
2023-05-04T08:35:59.550Z,45.08
2023-05-04T08:38:26.688Z,46.03
2023-05-04T08:40:54.929Z,45.42
2023-05-04T08:43:22.199Z,43.98
2023-05-04T08:45:51.726Z,42.17
2023-05-04T08:48:18.998Z,42.50
2023-05-04T08:50:46.184Z,44.22
2023-05-04T08:53:13.966Z,43.34
2023-05-04T08:55:42.476Z,43.96
2023-05-04T08:58:10.964Z,44.41
2023-05-04T09:00:38.826Z,43.85
2023-05-04T09:03:10.520Z,44.34
2023-05-04T09:05:38.380Z,43.56
2023-05-04T09:08:05.649Z,43.32
2023-05-04T09:10:33.370Z,42.26
2023-05-04T09:13:00.007Z,42.07
2023-05-04T09:15:26.619Z,41.28
2023-05-04T09:18:03.914Z,42.72
2023-05-04T09:20:31.519Z,43.78
2023-05-04T09:23:09.154Z,43.57
2023-05-04T09:25:55.273Z,45.30
2023-05-04T09:28:37.461Z,43.26
2023-05-04T09:31:04.498Z,44.13
2023-05-04T09:33:32.038Z,43.83
2023-05-04T09:36:15.926Z,42.99
2023-05-04T09:38:42.530Z,43.09
2023-05-04T09:41:09.409Z,43.92
2023-05-04T09:43:43.941Z,42.90
2023-05-04T09:46:20.126Z,43.09
2023-05-04T09:48:57.168Z,43.91
2023-05-04T09:51:25.943Z,42.97
2023-05-04T09:53:52.804Z,42.70
2023-05-04T09:56:38.744Z,41.48
2023-05-04T09:59:05.918Z,40.91
2023-05-04T10:01:32.556Z,42.81
2023-05-04T10:03:59.208Z,41.28
2023-05-04T10:06:28.906Z,40.89
2023-05-04T10:08:56.507Z,40.05
2023-05-04T10:11:25.797Z,39.71
2023-05-04T10:13:55.890Z,40.32
2023-05-04T10:16:38.827Z,38.78
2023-05-04T10:19:22.674Z,38.25
2023-05-04T10:22:10.882Z,38.39
2023-05-04T10:24:57.179Z,40.05
2023-05-04T10:27:57.330Z,39.54
2023-05-04T10:30:23.955Z,38.52
2023-05-04T10:32:57.726Z,38.73
2023-05-04T10:35:24.666Z,41.82
2023-05-04T10:37:54.460Z,42.63
2023-05-04T10:40:36.776Z,41.35
2023-05-04T10:43:04.052Z,41.48
2023-05-04T10:45:37.267Z,42.01
2023-05-04T10:48:05.197Z,41.29
2023-05-04T10:50:46.082Z,41.97
2023-05-04T10:53:14.679Z,41.86
2023-05-04T10:55:48.718Z,41.19
2023-05-04T10:58:19.158Z,39.54
2023-05-04T11:00:48.101Z,40.88
2023-05-04T11:03:15.530Z,41.29
2023-05-04T11:05:43.395Z,40.40
2023-05-04T11:08:19.879Z,41.40
2023-05-04T11:10:48.225Z,39.83
2023-05-04T11:13:16.261Z,41.67
2023-05-04T11:15:47.203Z,43.53
2023-05-04T11:18:13.823Z,43.35
2023-05-04T11:20:40.830Z,41.57
2023-05-04T11:23:10.305Z,41.69
2023-05-04T11:25:37.680Z,39.87
2023-05-04T11:28:04.777Z,41.77
2023-05-04T11:30:33.499Z,41.96
2023-05-04T11:33:00.947Z,42.27
2023-05-04T11:35:27.684Z,41.37
2023-05-04T11:37:55.472Z,42.96
2023-05-04T11:40:25.175Z,42.36
2023-05-04T11:42:55.403Z,42.87
2023-05-04T11:45:24.213Z,42.74
2023-05-04T11:47:52.096Z,42.47
2023-05-04T11:50:20.765Z,41.78
2023-05-04T11:52:47.872Z,41.50
2023-05-04T11:55:30.819Z,42.02
2023-05-04T11:58:07.237Z,40.79
2023-05-04T12:00:41.699Z,40.17
2023-05-04T12:03:10.128Z,39.99
2023-05-04T12:05:37.571Z,40.81
2023-05-04T12:08:04.556Z,40.33
2023-05-04T12:10:33.495Z,41.06
2023-05-04T12:13:00.124Z,41.01
2023-05-04T12:15:36.475Z,42.13
2023-05-04T12:18:03.571Z,43.56
2023-05-04T12:20:30.902Z,42.98
2023-05-04T12:22:57.902Z,40.95
2023-05-04T12:25:25.027Z,40.49
2023-05-04T12:27:51.764Z,39.58
2023-05-04T12:30:18.476Z,39.46
2023-05-04T12:32:45.213Z,40.24
2023-05-04T12:35:11.942Z,41.20
2023-05-04T12:37:38.404Z,40.30
2023-05-04T12:40:21.005Z,40.86
2023-05-04T12:42:54.847Z,40.77
2023-05-04T12:45:22.699Z,40.98
2023-05-04T12:47:51.222Z,41.35
2023-05-04T12:50:18.052Z,41.98
2023-05-04T12:52:44.686Z,40.98
2023-05-04T12:55:11.289Z,42.64
2023-05-04T12:57:37.891Z,43.01
2023-05-04T13:00:07.228Z,41.87
2023-05-04T13:02:34.255Z,39.87
2023-05-04T13:05:00.904Z,40.84
2023-05-04T13:07:27.699Z,40.59
2023-05-04T13:09:54.167Z,41.51
2023-05-04T13:12:20.646Z,40.63
2023-05-04T13:14:47.631Z,38.53
2023-05-04T13:17:15.112Z,38.28
2023-05-04T13:19:41.700Z,38.32
2023-05-04T13:22:08.288Z,39.55
2023-05-04T13:24:34.964Z,40.60
2023-05-04T13:27:01.570Z,41.12
2023-05-04T13:29:28.057Z,41.58
2023-05-04T13:31:54.646Z,40.46
2023-05-04T13:34:21.220Z,41.59
2023-05-04T13:36:48.138Z,40.59
2023-05-04T13:39:14.910Z,41.16
2023-05-04T13:41:41.471Z,43.22
2023-05-04T13:44:08.211Z,42.96
2023-05-04T13:46:36.202Z,42.03
2023-05-04T13:49:03.111Z,41.80
2023-05-04T13:51:29.839Z,42.75
2023-05-04T13:53:56.281Z,42.39
2023-05-04T13:56:23.368Z,42.09
2023-05-04T13:58:49.994Z,42.99
2023-05-04T14:01:16.511Z,43.79
2023-05-04T14:03:43.093Z,43.01
2023-05-04T14:06:09.624Z,43.49
2023-05-04T14:08:36.176Z,43.91
2023-05-04T14:11:03.000Z,43.18
2023-05-04T14:13:29.470Z,42.06
2023-05-04T14:15:55.910Z,42.30
2023-05-04T14:18:22.408Z,43.70
2023-05-04T14:20:49.054Z,44.14
2023-05-04T14:23:16.172Z,45.67
2023-05-04T14:25:44.022Z,44.79
2023-05-04T14:28:10.853Z,42.48
2023-05-04T14:30:37.319Z,43.57
2023-05-04T14:33:04.028Z,42.54
2023-05-04T14:35:31.724Z,42.21
2023-05-04T14:37:58.180Z,43.35
2023-05-04T14:40:24.608Z,42.72
2023-05-04T14:42:51.328Z,42.86
2023-05-04T14:45:17.956Z,42.74
2023-05-04T14:47:44.548Z,44.53
2023-05-04T14:50:12.166Z,43.39
2023-05-04T14:52:38.885Z,43.25
2023-05-04T14:55:09.036Z,43.19
2023-05-04T14:57:35.617Z,44.24
2023-05-04T15:00:07.846Z,43.63
2023-05-04T15:02:35.888Z,44.45
2023-05-04T15:05:03.017Z,45.16
2023-05-04T15:07:29.516Z,45.26
2023-05-04T15:09:56.126Z,45.55
2023-05-04T15:12:22.876Z,45.44
2023-05-04T15:14:49.367Z,44.96
2023-05-04T15:17:17.225Z,45.18
2023-05-04T15:19:45.328Z,45.87
2023-05-04T15:22:11.797Z,44.80
2023-05-04T15:24:41.804Z,45.67
2023-05-04T15:27:08.275Z,44.57
2023-05-04T15:29:34.738Z,43.92
2023-05-04T15:32:01.295Z,44.33
2023-05-04T15:34:27.812Z,45.11
2023-05-04T15:36:55.050Z,45.41
2023-05-04T15:39:21.899Z,46.16
2023-05-04T15:41:48.359Z,45.60
2023-05-04T15:44:15.314Z,45.64
2023-05-04T15:46:43.262Z,45.40
2023-05-04T15:49:09.864Z,46.09
2023-05-04T15:51:36.547Z,46.51
2023-05-04T15:54:03.842Z,47.01
2023-05-04T15:56:30.273Z,46.06
2023-05-04T15:58:56.974Z,46.41
2023-05-04T16:01:23.476Z,46.77
2023-05-04T16:03:50.173Z,46.25
2023-05-04T16:06:17.959Z,47.10
2023-05-04T16:08:44.689Z,46.80
2023-05-04T16:11:11.334Z,47.39
2023-05-04T16:13:37.859Z,47.32
2023-05-04T16:16:04.768Z,48.44
2023-05-04T16:18:31.684Z,47.88
2023-05-04T16:20:58.304Z,47.12
2023-05-04T16:23:24.845Z,47.48
2023-05-04T16:25:51.875Z,46.42
2023-05-04T16:28:18.434Z,46.89
2023-05-04T16:30:45.757Z,47.30
2023-05-04T16:33:12.857Z,47.57
2023-05-04T16:35:39.377Z,47.19
2023-05-04T16:38:06.278Z,46.84
2023-05-04T16:40:33.051Z,48.30
2023-05-04T16:42:59.796Z,46.62
2023-05-04T16:45:31.231Z,46.85
2023-05-04T16:47:58.911Z,46.66
2023-05-04T16:50:25.567Z,47.30
2023-05-04T16:52:52.023Z,46.68
2023-05-04T16:55:19.124Z,47.23
2023-05-04T16:57:46.084Z,48.41
2023-05-04T17:00:13.644Z,49.51
2023-05-04T17:02:40.304Z,48.55
2023-05-04T17:05:10.109Z,49.87
2023-05-04T17:07:39.588Z,49.11
2023-05-04T17:10:07.819Z,49.31
2023-05-04T17:12:34.865Z,49.61
2023-05-04T17:15:01.571Z,50.29
2023-05-04T17:17:28.469Z,49.95
2023-05-04T17:19:55.208Z,49.62
2023-05-04T17:22:21.994Z,49.13
2023-05-04T17:24:49.450Z,49.42
2023-05-04T17:27:18.606Z,49.88
2023-05-04T17:29:57.534Z,49.75
2023-05-04T17:35:25.805Z,51.21
2023-05-04T17:38:03.752Z,51.72
2023-05-04T17:40:30.687Z,51.56
2023-05-04T17:43:00.349Z,50.99
2023-05-04T17:45:27.022Z,52.70
2023-05-04T17:47:53.839Z,51.88
2023-05-04T17:50:23.832Z,51.49
2023-05-04T17:52:56.988Z,51.69
2023-05-04T17:55:27.673Z,51.40
2023-05-04T17:57:54.577Z,53.10
2023-05-04T18:00:21.523Z,52.48
2023-05-04T18:02:48.142Z,52.34
2023-05-04T18:05:14.988Z,51.92
2023-05-04T18:07:41.626Z,52.24
2023-05-04T18:10:08.534Z,52.02
2023-05-04T18:12:38.039Z,51.84
2023-05-04T18:15:08.281Z,51.23
2023-05-04T18:17:37.688Z,49.71
2023-05-04T18:20:06.861Z,50.15
2023-05-04T18:22:34.158Z,51.29
2023-05-04T18:25:01.421Z,51.84
2023-05-04T18:27:34.779Z,50.84
2023-05-04T18:30:02.134Z,51.06
2023-05-04T18:32:28.685Z,52.00
2023-05-04T18:34:58.027Z,52.06
2023-05-04T18:37:25.516Z,52.70
2023-05-04T18:39:52.023Z,52.28
2023-05-04T18:42:18.584Z,52.55
2023-05-04T18:44:45.159Z,51.93
2023-05-04T18:47:11.682Z,51.84
2023-05-04T18:49:38.265Z,52.24
2023-05-04T18:52:05.060Z,52.83
2023-05-04T18:54:34.605Z,54.00
2023-05-04T18:57:01.212Z,53.36
2023-05-04T18:59:27.770Z,53.29
2023-05-04T19:01:54.392Z,53.07
2023-05-04T19:04:20.917Z,53.04
2023-05-04T19:06:47.762Z,52.58
2023-05-04T19:09:15.092Z,51.81
2023-05-04T19:11:41.733Z,51.59
2023-05-04T19:14:08.253Z,50.72
2023-05-04T19:16:35.090Z,51.25
2023-05-04T19:19:01.608Z,51.64
2023-05-04T19:21:28.578Z,50.76
2023-05-04T19:23:55.129Z,51.60
2023-05-04T19:26:22.036Z,51.37
2023-05-04T19:28:48.631Z,51.75
2023-05-04T19:31:15.588Z,51.51
2023-05-04T19:33:48.457Z,52.79
2023-05-04T19:36:16.948Z,52.72
2023-05-04T19:38:43.786Z,54.19
2023-05-04T19:41:10.563Z,54.36
2023-05-04T19:43:38.869Z,54.33
2023-05-04T19:46:05.749Z,53.96
2023-05-04T19:48:33.038Z,55.47
2023-05-04T19:50:59.558Z,55.88
2023-05-04T19:53:26.164Z,55.79
2023-05-04T19:55:52.921Z,56.04
2023-05-04T19:58:19.436Z,55.79
2023-05-04T20:00:45.973Z,56.76
2023-05-04T20:03:12.488Z,56.74
2023-05-04T20:05:39.045Z,56.38
2023-05-04T20:08:05.588Z,55.72
2023-05-04T20:10:32.623Z,55.61
2023-05-04T20:12:59.179Z,56.18
2023-05-04T20:15:26.078Z,57.39
2023-05-04T20:17:53.045Z,56.39
2023-05-04T20:20:21.510Z,56.32
2023-05-04T20:22:51.984Z,56.86
2023-05-04T20:25:20.117Z,56.67
2023-05-04T20:27:48.697Z,56.29
2023-05-04T20:30:15.702Z,56.78
2023-05-04T20:32:42.732Z,55.92
2023-05-04T20:35:09.554Z,56.88
2023-05-04T20:37:36.386Z,57.62
2023-05-04T20:40:02.965Z,56.45
2023-05-04T20:42:29.410Z,56.87
2023-05-04T20:44:56.084Z,57.25
2023-05-04T20:47:22.655Z,55.99
2023-05-04T20:49:49.355Z,56.49
2023-05-04T20:52:16.074Z,56.73
2023-05-04T20:54:44.907Z,56.53
2023-05-04T20:57:11.501Z,56.72
2023-05-04T20:59:38.187Z,56.86
2023-05-04T21:02:05.006Z,56.33
2023-05-04T21:04:31.555Z,56.29
2023-05-04T21:06:58.247Z,55.01
2023-05-04T21:09:26.378Z,56.87
2023-05-04T21:11:52.936Z,56.34
2023-05-04T21:14:19.985Z,55.79
2023-05-04T21:16:46.518Z,57.06
2023-05-04T21:19:13.028Z,56.84
2023-05-04T21:21:41.376Z,56.14
2023-05-04T21:24:14.477Z,57.52
2023-05-04T21:26:41.700Z,56.89
2023-05-04T21:29:13.120Z,56.31
2023-05-04T21:31:40.667Z,56.27
2023-05-04T21:34:07.799Z,57.28
2023-05-04T21:36:34.726Z,56.51
2023-05-04T21:39:01.405Z,56.43
2023-05-04T21:41:27.983Z,56.26
2023-05-04T21:43:54.808Z,56.64
2023-05-04T21:46:21.438Z,55.55
2023-05-04T21:48:48.409Z,54.69
2023-05-04T21:51:15.000Z,55.01
2023-05-04T21:53:44.777Z,56.18
2023-05-04T21:56:11.837Z,55.24
2023-05-04T21:58:40.701Z,54.15
2023-05-04T22:01:08.260Z,55.90
2023-05-04T22:03:35.618Z,55.02
2023-05-04T22:06:02.202Z,54.88
2023-05-04T22:08:29.117Z,55.10
2023-05-04T22:10:57.177Z,53.85
2023-05-04T22:13:23.743Z,54.22
2023-05-04T22:15:50.944Z,54.61
2023-05-04T22:18:18.198Z,54.02
2023-05-04T22:20:45.297Z,54.64
2023-05-04T22:23:12.086Z,53.50
2023-05-04T22:25:39.091Z,53.37
2023-05-04T22:28:05.896Z,53.11
2023-05-04T22:30:32.589Z,53.73
2023-05-04T22:32:59.177Z,54.64
2023-05-04T22:35:25.698Z,53.51
2023-05-04T22:37:52.247Z,53.19
2023-05-04T22:40:18.959Z,54.11
2023-05-04T22:42:45.690Z,53.16
2023-05-04T22:45:14.122Z,54.26
2023-05-04T22:47:44.311Z,54.17
2023-05-04T22:50:11.151Z,53.91
2023-05-04T22:52:38.241Z,54.45
2023-05-04T22:55:05.828Z,53.76
2023-05-04T22:57:33.405Z,54.46
2023-05-04T22:59:59.866Z,54.74
2023-05-04T23:02:36.299Z,53.35
2023-05-04T23:05:04.831Z,53.55
2023-05-04T23:07:31.632Z,54.04
2023-05-04T23:09:58.245Z,53.09
2023-05-04T23:12:25.568Z,52.68
2023-05-04T23:14:55.025Z,53.00
2023-05-04T23:17:22.056Z,53.92
2023-05-04T23:19:48.586Z,52.52
2023-05-04T23:22:15.126Z,53.29
2023-05-04T23:24:42.301Z,52.41
2023-05-04T23:27:08.835Z,52.87
2023-05-04T23:29:35.575Z,52.01
2023-05-04T23:32:02.088Z,52.32
2023-05-04T23:34:28.574Z,52.71
2023-05-04T23:36:55.201Z,52.75
2023-05-04T23:39:22.225Z,52.98
2023-05-04T23:41:49.169Z,52.62
2023-05-04T23:44:16.557Z,53.10
2023-05-04T23:46:43.770Z,51.95
2023-05-04T23:49:10.323Z,51.94
2023-05-04T23:51:36.840Z,53.69
2023-05-04T23:54:03.435Z,54.27
2023-05-04T23:56:31.291Z,53.82
2023-05-04T23:58:57.787Z,54.83
